Time;durP1;ratioP1;P1;durP2;ratioP2;P2;SDS_P1;SDS_P2;PMS_P1;PMS_P2;Temp;Humidity;BMP_temperature;BMP_pressure;BME280_temperature;BME280_humidity;BME280_pressure;Samples;Min_cycle;Max_cycle;Signal;HPM_P1;HPM_P2
2022/04/09 00:00:38;;;;;;;11.18;8.50;;;6.70;99.10;;;;;;5094502;28;20490;-47
2022/04/09 00:03:22;;;;;;;10.35;8.68;;;6.60;99.10;;;;;;5090859;28;20043;-53
2022/04/09 00:06:06;;;;;;;13.60;8.98;;;6.60;99.10;;;;;;5094019;28;20039;-53
2022/04/09 00:08:51;;;;;;;13.38;9.27;;;6.60;98.80;;;;;;5086649;28;20136;-51
2022/04/09 00:11:34;;;;;;;12.70;9.75;;;6.50;98.80;;;;;;5074120;28;20128;-51
2022/04/09 00:14:19;;;;;;;10.77;9.67;;;6.60;98.70;;;;;;5081249;28;20043;-49
2022/04/09 00:17:03;;;;;;;13.25;10.10;;;6.50;99.10;;;;;;5076461;28;20096;-50
2022/04/09 00:19:48;;;;;;;11.50;8.98;;;6.40;99.20;;;;;;5074620;28;20112;-53
2022/04/09 00:22:33;;;;;;;;;;;6.30;99.40;;;;;;5074830;28;20170;-53
2022/04/09 00:25:21;;;;;;;15.60;9.48;;;6.40;99.40;;;;;;5091487;28;20436;-51
2022/04/09 00:28:05;;;;;;;13.38;10.57;;;6.20;99.70;;;;;;5080599;28;20039;-47
2022/04/09 00:30:49;;;;;;;12.32;9.63;;;6.20;99.90;;;;;;5076790;28;20071;-47
2022/04/09 00:33:34;;;;;;;12.38;9.95;;;6.20;99.90;;;;;;5093803;28;20054;-53
2022/04/09 00:36:19;;;;;;;;;;;6.20;99.90;;;;;;5093680;28;20089;-50
2022/04/09 00:39:03;;;;;;;15.20;9.90;;;6.20;99.90;;;;;;5094477;28;19958;-52
2022/04/09 00:41:49;;;;;;;13.20;10.48;;;6.00;99.90;;;;;;5099811;28;20038;-51
2022/04/09 00:44:34;;;;;;;11.68;9.77;;;5.90;99.90;;;;;;5116161;28;20034;-51
2022/04/09 00:47:18;;;;;;;11.05;9.93;;;6.00;99.90;;;;;;5098160;28;20431;-48
2022/04/09 00:50:04;;;;;;;13.63;10.27;;;6.10;99.90;;;;;;5095032;28;20559;-49
2022/04/09 00:52:50;;;;;;;12.50;9.93;;;6.10;99.90;;;;;;5075609;28;20052;-52
2022/04/09 00:58:43;;;;;;;12.93;9.15;;;6.30;99.90;;;;;;5075222;28;20070;-47
2022/04/09 01:01:31;;;;;;;10.60;9.43;;;6.20;99.90;;;;;;5080148;28;20040;-48
2022/04/09 01:04:16;;;;;;;13.18;9.85;;;6.00;99.90;;;;;;5093848;28;20089;-50
2022/04/09 01:07:00;;;;;;;14.00;9.93;;;6.20;99.90;;;;;;5081980;28;20040;-49
2022/04/09 01:09:45;;;;;;;10.32;9.25;;;6.20;99.90;;;;;;5074746;28;20043;-52
2022/04/09 01:12:31;;;;;;;12.95;9.60;;;6.10;99.90;;;;;;5094293;28;20055;-52
2022/04/09 01:15:15;;;;;;;13.30;8.35;;;6.10;99.90;;;;;;5089097;28;20034;-50
2022/04/09 01:18:00;;;;;;;10.23;8.15;;;5.90;99.90;;;;;;5072916;28;20423;-51
2022/04/09 01:20:44;;;;;;;10.73;8.43;;;6.00;99.90;;;;;;5081666;28;20039;-52
2022/04/09 01:23:29;;;;;;;16.60;8.50;;;6.00;99.90;;;;;;5094066;28;20035;-50
2022/04/09 01:26:15;;;;;;;12.68;8.32;;;6.10;99.90;;;;;;5081757;28;20047;-51
2022/04/09 01:28:59;;;;;;;10.40;8.40;;;6.10;99.90;;;;;;5072391;28;20747;-49
2022/04/09 01:31:43;;;;;;;11.23;7.90;;;5.90;99.90;;;;;;5088070;28;20574;-51
2022/04/09 01:34:27;;;;;;;11.38;7.68;;;5.90;99.90;;;;;;5093514;28;20035;-51
2022/04/09 01:37:11;;;;;;;12.80;8.17;;;5.90;99.90;;;;;;5074492;28;20120;-47
2022/04/09 01:39:57;;;;;;;15.38;8.60;;;5.90;99.90;;;;;;5082739;28;20286;-50
2022/04/09 01:42:41;;;;;;;13.27;8.30;;;5.80;99.90;;;;;;5106876;28;20111;-50
2022/04/09 01:45:27;;;;;;;10.98;7.72;;;5.90;99.90;;;;;;5099506;28;20042;-49
2022/04/09 01:48:12;;;;;;;11.80;7.22;;;5.80;99.90;;;;;;5093457;28;20060;-48
2022/04/09 01:50:56;;;;;;;14.00;8.30;;;5.90;99.90;;;;;;5075413;28;20090;-50
2022/04/09 01:53:40;;;;;;;14.80;7.97;;;5.80;99.90;;;;;;5074399;28;20036;-48
2022/04/09 01:56:24;;;;;;;11.50;7.50;;;5.60;99.90;;;;;;5073301;28;20534;-49
2022/04/09 01:59:08;;;;;;;10.95;7.35;;;5.40;99.90;;;;;;5085313;28;20043;-49
2022/04/09 02:01:52;;;;;;;10.40;7.57;;;5.60;99.90;;;;;;5093696;28;20111;-49
2022/04/09 02:04:36;;;;;;;11.35;7.40;;;5.50;99.90;;;;;;5077401;28;20453;-51
2022/04/09 02:07:20;;;;;;;9.77;6.97;;;5.60;99.90;;;;;;5072792;28;20116;-52
2022/04/09 02:10:05;;;;;;;12.90;7.35;;;5.60;99.90;;;;;;5090824;28;20522;-50
2022/04/09 02:12:50;;;;;;;11.05;6.35;;;5.50;99.90;;;;;;5092368;28;20040;-51
2022/04/09 02:15:34;;;;;;;9.93;6.72;;;5.60;99.90;;;;;;5072705;28;20128;-50
2022/04/09 02:18:18;;;;;;;11.15;6.95;;;5.50;99.90;;;;;;5075265;28;20089;-52
2022/04/09 02:21:02;;;;;;;8.63;5.80;;;5.40;99.90;;;;;;5090370;28;20034;-52
2022/04/09 02:23:46;;;;;;;8.32;5.90;;;5.50;99.90;;;;;;5087903;28;20035;-50
2022/04/09 02:26:30;;;;;;;10.45;6.07;;;5.60;99.90;;;;;;5091639;28;20047;-48
2022/04/09 02:29:15;;;;;;;14.05;6.60;;;5.50;99.90;;;;;;5090350;28;20518;-51
2022/04/09 02:32:01;;;;;;;12.20;6.43;;;5.50;99.90;;;;;;5091144;28;20542;-49
2022/04/09 02:34:46;;;;;;;7.80;5.63;;;5.60;99.90;;;;;;5090807;28;20082;-49
2022/04/09 02:37:29;;;;;;;8.98;5.80;;;5.60;99.90;;;;;;5072163;28;20078;-48
2022/04/09 02:40:14;;;;;;;8.20;5.63;;;5.50;99.90;;;;;;5072597;28;20039;-52
2022/04/09 02:42:58;;;;;;;10.80;5.65;;;5.50;99.90;;;;;;5096592;28;20074;-49
2022/04/09 02:45:42;;;;;;;11.25;5.85;;;5.60;99.90;;;;;;5092201;28;20066;-54
2022/04/09 02:48:26;;;;;;;9.82;5.28;;;5.60;99.90;;;;;;5081211;28;20550;-52
2022/04/09 02:51:12;;;;;;;7.03;4.93;;;5.50;99.90;;;;;;5074246;28;20082;-53
2022/04/09 02:53:56;;;;;;;8.02;4.68;;;5.50;99.90;;;;;;5093627;28;20031;-51
2022/04/09 02:56:43;;;;;;;7.72;4.72;;;5.50;99.90;;;;;;5092118;28;20043;-49
2022/04/09 02:59:27;;;;;;;10.77;4.70;;;5.60;99.90;;;;;;5078729;28;20108;-53
2022/04/09 03:02:12;;;;;;;7.63;4.57;;;5.50;99.90;;;;;;5085957;28;20040;-48
2022/04/09 03:04:56;;;;;;;7.32;4.80;;;5.70;99.90;;;;;;5095683;28;20047;-49
2022/04/09 03:07:40;;;;;;;14.05;4.90;;;5.70;99.90;;;;;;5075689;28;20094;-50
2022/04/09 03:10:25;;;;;;;11.38;4.55;;;5.80;99.90;;;;;;5097132;28;20035;-50
2022/04/09 03:13:09;;;;;;;7.40;4.43;;;5.70;99.90;;;;;;5091794;28;20059;-48
2022/04/09 03:15:53;;;;;;;8.57;4.20;;;5.70;99.90;;;;;;5075886;28;20557;-46
2022/04/09 03:18:37;;;;;;;9.25;4.90;;;5.70;99.90;;;;;;5082811;28;20059;-48
2022/04/09 03:21:21;;;;;;;9.20;4.40;;;5.70;99.90;;;;;;5095692;28;20437;-48
2022/04/09 03:24:06;;;;;;;8.35;4.05;;;5.70;99.90;;;;;;5084307;28;20090;-49
2022/04/09 03:26:49;;;;;;;12.13;4.75;;;5.60;99.90;;;;;;5075103;28;20071;-52
2022/04/09 03:29:33;;;;;;;7.80;4.47;;;5.50;99.90;;;;;;5075592;28;20058;-49
2022/04/09 03:32:18;;;;;;;6.32;3.90;;;5.60;99.90;;;;;;5088928;28;20043;-49
2022/04/09 03:35:06;;;;;;;8.00;3.83;;;5.70;99.90;;;;;;5095490;28;20522;-52
2022/04/09 03:37:51;;;;;;;7.38;4.53;;;5.60;99.90;;;;;;5093572;28;20112;-50
2022/04/09 03:40:35;;;;;;;9.23;4.47;;;5.60;99.40;;;;;;5092839;28;20063;-50
2022/04/09 03:43:19;;;;;;;7.82;3.47;;;5.60;99.00;;;;;;5113589;28;20026;-49
2022/04/09 03:46:04;;;;;;;7.68;3.83;;;5.50;99.20;;;;;;5107675;28;20047;-46
2022/04/09 03:48:48;;;;;;;9.82;3.88;;;5.40;99.40;;;;;;5095048;28;20463;-47
2022/04/09 03:51:32;;;;;;;8.02;3.55;;;5.50;99.50;;;;;;5085026;28;20066;-50
2022/04/09 03:54:16;;;;;;;8.63;3.88;;;5.50;99.60;;;;;;5075701;28;20047;-48
2022/04/09 03:57:00;;;;;;;5.95;4.40;;;5.50;99.60;;;;;;5074522;28;20040;-50
2022/04/09 03:59:44;;;;;;;12.50;4.03;;;5.40;99.70;;;;;;5089462;28;20111;-47
2022/04/09 04:02:29;;;;;;;6.38;3.70;;;5.50;99.90;;;;;;5094809;28;20115;-52
2022/04/09 04:05:13;;;;;;;12.20;4.22;;;5.50;99.90;;;;;;5076005;28;20035;-51
2022/04/09 04:07:57;;;;;;;10.65;3.75;;;5.50;99.90;;;;;;5074240;28;20035;-52
2022/04/09 04:10:41;;;;;;;12.02;3.47;;;5.60;99.90;;;;;;5074835;28;20040;-51
2022/04/09 04:13:25;;;;;;;11.05;4.32;;;5.50;99.90;;;;;;5090899;28;20031;-48
2022/04/09 04:16:09;;;;;;;13.95;4.05;;;5.50;99.90;;;;;;5084374;28;20089;-50
2022/04/09 04:18:53;;;;;;;8.32;3.88;;;5.60;99.90;;;;;;5073537;28;20063;-50
2022/04/09 04:21:38;;;;;;;10.13;3.50;;;5.50;99.90;;;;;;5074461;28;20040;-48
2022/04/09 04:24:23;;;;;;;8.15;3.83;;;5.50;99.90;;;;;;5074682;28;20035;-49
2022/04/09 04:27:08;;;;;;;12.40;3.92;;;5.60;99.90;;;;;;5074095;28;20039;-46
2022/04/09 04:29:52;;;;;;;7.95;4.35;;;5.60;99.90;;;;;;5094738;28;20074;-47
2022/04/09 04:32:36;;;;;;;13.95;4.53;;;5.60;99.90;;;;;;5092805;28;20035;-48
2022/04/09 04:35:21;;;;;;;;;;;5.60;99.90;;;;;;5090746;28;20040;-48
2022/04/09 04:38:05;;;;;;;10.55;4.47;;;5.60;99.90;;;;;;5074270;28;19923;-48
2022/04/09 04:40:50;;;;;;;9.35;4.38;;;5.70;99.90;;;;;;5074315;28;20075;-51
2022/04/09 04:43:34;;;;;;;12.50;6.60;;;5.60;99.90;;;;;;5075892;28;20400;-47
2022/04/09 04:46:19;;;;;;;15.23;8.75;;;5.60;99.90;;;;;;5076117;28;20051;-47
2022/04/09 04:49:03;;;;;;;10.95;8.32;;;5.40;99.90;;;;;;5094807;28;20054;-47
2022/04/09 04:51:47;;;;;;;11.90;9.23;;;5.30;99.90;;;;;;5089044;28;20399;-48
2022/04/09 04:54:31;;;;;;;14.07;9.75;;;5.30;99.90;;;;;;5073784;28;20031;-48
2022/04/09 04:57:16;;;;;;;15.68;9.55;;;5.30;99.90;;;;;;5081386;28;20047;-48
2022/04/09 05:00:00;;;;;;;13.25;10.18;;;5.30;99.90;;;;;;5094370;28;20039;-47
2022/04/09 05:02:44;;;;;;;14.23;9.10;;;5.50;99.90;;;;;;5073737;28;20047;-50
2022/04/09 05:05:28;;;;;;;11.80;8.75;;;5.50;99.90;;;;;;5074811;28;20035;-50
2022/04/09 05:08:12;;;;;;;12.45;9.07;;;5.80;99.90;;;;;;5093790;28;20043;-52
2022/04/09 05:10:56;;;;;;;16.83;9.57;;;5.70;99.90;;;;;;5086952;28;20047;-51
2022/04/09 05:13:40;;;;;;;17.38;9.18;;;5.50;99.90;;;;;;5072058;28;20055;-46
2022/04/09 05:16:24;;;;;;;15.77;9.05;;;5.60;99.90;;;;;;5092458;28;20058;-53
2022/04/09 05:19:08;;;;;;;15.98;8.68;;;5.60;99.90;;;;;;5089249;28;20047;-52
2022/04/09 05:21:53;;;;;;;14.52;9.10;;;5.60;99.90;;;;;;5071996;28;20135;-50
2022/04/09 05:24:37;;;;;;;11.10;7.85;;;5.60;99.90;;;;;;5066309;28;20047;-48
2022/04/09 05:27:21;;;;;;;15.32;8.88;;;5.60;99.90;;;;;;5092812;28;20050;-52
2022/04/09 05:30:06;;;;;;;13.23;8.88;;;5.60;99.90;;;;;;5091539;28;20476;-53
2022/04/09 05:32:50;;;;;;;12.23;8.18;;;5.70;99.90;;;;;;5090038;28;20145;-49
2022/04/09 05:35:34;;;;;;;15.30;8.10;;;5.60;99.90;;;;;;5086432;28;20128;-51
2022/04/09 05:38:18;;;;;;;15.85;8.15;;;5.60;99.90;;;;;;5058078;28;20036;-49
2022/04/09 05:41:02;;;;;;;12.52;7.85;;;5.50;99.90;;;;;;5091045;28;20474;-51
2022/04/09 05:43:46;;;;;;;9.40;7.63;;;5.60;99.90;;;;;;5106017;28;20615;-51
2022/04/09 05:46:30;;;;;;;13.98;7.65;;;5.90;99.90;;;;;;5091775;28;20110;-48
2022/04/09 05:49:14;;;;;;;11.95;7.45;;;5.80;99.90;;;;;;5082087;28;20158;-48
2022/04/09 05:51:58;;;;;;;12.68;6.57;;;5.90;99.90;;;;;;5072546;28;20048;-50
2022/04/09 05:54:43;;;;;;;8.68;6.20;;;5.90;99.90;;;;;;5085247;28;20059;-47
2022/04/09 05:57:27;;;;;;;10.77;5.50;;;5.80;99.90;;;;;;5092401;28;20059;-52
2022/04/09 06:00:13;;;;;;;10.40;6.57;;;5.80;99.90;;;;;;5087311;28;20440;-49
2022/04/09 06:02:57;;;;;;;16.33;5.60;;;5.80;99.90;;;;;;5091179;28;20265;-50
2022/04/09 06:05:41;;;;;;;13.02;5.60;;;5.60;99.90;;;;;;5091371;28;20108;-50
2022/04/09 06:08:25;;;;;;;10.23;4.65;;;5.70;99.90;;;;;;5091801;28;20051;-51
2022/04/09 06:11:10;;;;;;;16.10;5.57;;;5.70;99.90;;;;;;5072632;28;20056;-54
2022/04/09 06:13:54;;;;;;;9.68;5.28;;;5.70;99.90;;;;;;5086812;28;20348;-51
2022/04/09 06:16:38;;;;;;;11.63;5.47;;;5.70;99.90;;;;;;5081447;28;20044;-51
2022/04/09 06:19:22;;;;;;;8.77;4.97;;;5.80;99.90;;;;;;5072478;28;20043;-54
2022/04/09 06:22:06;;;;;;;11.07;5.80;;;5.80;99.90;;;;;;5098711;28;20035;-49
2022/04/09 06:24:51;;;;;;;14.73;4.57;;;5.80;99.90;;;;;;5112744;28;20042;-52
2022/04/09 06:27:40;;;;;;;11.77;5.05;;;5.80;99.90;;;;;;5095337;28;20038;-51
2022/04/09 06:30:24;;;;;;;8.90;5.55;;;5.80;99.90;;;;;;5101062;28;20046;-50
2022/04/09 06:33:08;;;;;;;10.68;4.80;;;5.90;99.90;;;;;;5112564;28;20112;-50
2022/04/09 06:35:52;;;;;;;8.70;4.83;;;5.90;99.90;;;;;;5103141;28;20067;-51
2022/04/09 06:38:36;;;;;;;6.30;4.25;;;6.00;99.90;;;;;;5092615;28;20050;-53
2022/04/09 06:41:20;;;;;;;8.98;4.53;;;6.00;99.90;;;;;;5098301;28;20039;-52
2022/04/09 06:44:06;;;;;;;7.93;4.53;;;6.00;99.90;;;;;;5115630;28;20067;-51
2022/04/09 06:46:50;;;;;;;9.98;4.72;;;6.00;99.90;;;;;;5107252;28;20054;-50
2022/04/09 06:49:38;;;;;;;12.30;4.55;;;6.00;99.90;;;;;;5112878;28;20398;-51
2022/04/09 06:52:23;;;;;;;8.40;4.63;;;6.10;99.90;;;;;;5112989;28;20070;-51
2022/04/09 06:55:11;;;;;;;;;;;6.10;99.90;;;;;;5092689;28;20082;-49
2022/04/09 06:58:02;;;;;;;14.70;4.60;;;6.10;99.90;;;;;;5106247;28;19935;-50
2022/04/09 07:00:46;;;;;;;9.60;4.82;;;6.30;99.90;;;;;;5098626;28;20035;-48
2022/04/09 07:03:30;;;;;;;7.80;4.25;;;6.40;99.90;;;;;;5110868;28;20064;-50
2022/04/09 07:06:16;;;;;;;8.55;4.40;;;6.70;99.00;;;;;;5119375;27;20069;-53
2022/04/09 07:09:00;;;;;;;8.38;4.32;;;6.50;98.70;;;;;;5093200;28;20039;-51
2022/04/09 07:11:44;;;;;;;9.40;4.50;;;6.50;98.90;;;;;;5099902;28;20038;-48
2022/04/09 07:14:28;;;;;;;6.57;4.07;;;6.40;99.50;;;;;;5113046;28;20042;-51
2022/04/09 07:17:12;;;;;;;7.47;3.78;;;6.50;99.00;;;;;;5080393;28;20411;-51
2022/04/09 07:20:02;;;;;;;8.75;3.55;;;6.60;98.90;;;;;;5098075;28;20391;-50
2022/04/09 07:22:46;;;;;;;11.13;4.25;;;6.60;98.60;;;;;;5111599;28;20031;-52
2022/04/09 07:25:31;;;;;;;8.75;3.38;;;6.80;98.50;;;;;;5095851;28;20173;-50
2022/04/09 07:28:15;;;;;;;9.05;4.25;;;6.70;98.10;;;;;;5112259;28;20553;-53
2022/04/09 07:30:59;;;;;;;8.73;3.55;;;6.40;98.30;;;;;;5097855;28;20057;-53
2022/04/09 07:33:43;;;;;;;8.25;4.15;;;6.30;98.50;;;;;;5087473;28;20144;-61
2022/04/09 07:36:28;;;;;;;11.17;3.87;;;6.40;98.60;;;;;;5110176;28;20473;-53
2022/04/09 07:39:12;;;;;;;7.68;3.97;;;6.40;98.40;;;;;;5100932;28;20533;-49
2022/04/09 07:41:56;;;;;;;10.98;4.97;;;6.40;98.40;;;;;;5117770;27;20180;-49
2022/04/09 07:44:40;;;;;;;10.97;3.70;;;6.70;97.70;;;;;;5115777;27;20038;-49
2022/04/09 07:47:24;;;;;;;8.88;3.50;;;6.80;97.40;;;;;;5115914;28;20070;-51
2022/04/09 07:50:10;;;;;;;8.88;3.28;;;6.80;97.30;;;;;;5104013;28;20077;-51
2022/04/09 07:52:55;;;;;;;7.03;3.47;;;6.80;97.20;;;;;;5115328;28;20050;-48
2022/04/09 07:55:39;;;;;;;;;;;6.90;97.50;;;;;;5101155;28;20038;-50
2022/04/09 07:58:24;;;;;;;5.47;3.15;;;7.00;97.70;;;;;;5098861;28;19970;-49
2022/04/09 08:01:08;;;;;;;7.97;3.17;;;6.90;97.70;;;;;;5111247;28;20031;-49
2022/04/09 08:03:53;;;;;;;8.50;3.67;;;7.00;97.50;;;;;;5096412;28;20093;-49
2022/04/09 08:06:38;;;;;;;9.00;4.55;;;7.10;97.30;;;;;;5110423;28;20507;-45
2022/04/09 08:09:22;;;;;;;8.50;4.10;;;7.20;96.90;;;;;;5105819;28;20055;-54
2022/04/09 08:12:07;;;;;;;9.88;4.63;;;7.10;97.30;;;;;;5115123;28;20043;-45
2022/04/09 08:14:51;;;;;;;6.55;4.07;;;7.20;97.30;;;;;;5095239;28;20101;-49
2022/04/09 08:17:41;;;;;;;7.47;3.47;;;7.20;97.50;;;;;;5094740;28;20038;-50
2022/04/09 08:20:26;;;;;;;6.65;3.35;;;7.30;97.60;;;;;;5099024;28;20039;-51
2022/04/09 08:23:10;;;;;;;5.20;3.13;;;7.20;97.20;;;;;;5114968;28;20081;-49
2022/04/09 08:25:56;;;;;;;5.25;3.10;;;7.10;97.60;;;;;;5114969;28;20041;-47
2022/04/09 08:28:40;;;;;;;7.05;3.55;;;7.40;96.50;;;;;;5093373;28;20513;-47
2022/04/09 08:31:25;;;;;;;8.02;3.72;;;7.30;96.20;;;;;;5118845;27;20122;-57
2022/04/09 08:34:09;;;;;;;7.13;3.50;;;7.10;97.00;;;;;;5115216;27;20047;-47
2022/04/09 08:36:53;;;;;;;6.68;3.20;;;7.20;97.90;;;;;;5108083;28;20149;-50
2022/04/09 08:39:37;;;;;;;7.18;3.50;;;7.10;96.80;;;;;;5114662;28;20023;-54
2022/04/09 08:42:22;;;;;;;5.78;3.08;;;7.10;97.00;;;;;;5126320;27;20045;-47
2022/04/09 08:45:06;;;;;;;7.32;3.05;;;7.30;96.40;;;;;;5090562;28;20022;-50
2022/04/09 08:47:51;;;;;;;8.57;3.13;;;7.50;95.10;;;;;;5114915;28;20516;-51
2022/04/09 08:50:36;;;;;;;5.22;2.60;;;7.40;95.00;;;;;;5094637;28;20058;-52
2022/04/09 08:53:21;;;;;;;4.43;2.47;;;7.50;94.60;;;;;;5096710;28;20046;-43
2022/04/09 08:56:06;;;;;;;6.93;3.00;;;7.90;95.00;;;;;;5113933;28;20047;-51
2022/04/09 08:58:50;;;;;;;6.32;3.00;;;8.00;94.40;;;;;;5093159;28;20051;-47
2022/04/09 09:01:34;;;;;;;7.43;2.80;;;7.80;94.70;;;;;;5097094;28;20039;-46
2022/04/09 09:04:19;;;;;;;5.65;2.85;;;7.70;94.30;;;;;;5114502;28;20038;-47
2022/04/09 09:07:21;;;;;;;7.82;2.90;;;7.90;94.40;;;;;;5114388;28;20066;-50
2022/04/09 09:10:16;;;;;;;17.13;3.95;;;8.00;94.40;;;;;;5112575;28;20030;-52
2022/04/09 09:13:07;;;;;;;12.38;3.92;;;7.90;94.10;;;;;;5098583;28;20053;-50
2022/04/09 09:15:53;;;;;;;5.78;3.00;;;7.90;94.30;;;;;;5107731;28;20104;-52
2022/04/09 09:18:37;;;;;;;10.05;3.88;;;8.00;94.20;;;;;;5090560;28;20035;-45
2022/04/09 09:21:23;;;;;;;7.73;3.20;;;7.90;94.90;;;;;;5094949;28;20102;-51
2022/04/09 09:24:07;;;;;;;8.48;4.35;;;7.90;95.20;;;;;;5105097;28;20518;-52
2022/04/09 09:26:59;;;;;;;5.35;3.08;;;7.70;95.80;;;;;;5118473;27;20039;-51
2022/04/09 09:29:52;;;;;;;5.72;2.72;;;7.50;96.40;;;;;;5107097;27;20039;-46
2022/04/09 09:32:38;;;;;;;6.30;2.50;;;7.60;96.90;;;;;;5111362;28;20038;-51
2022/04/09 09:35:22;;;;;;;4.30;2.30;;;7.60;94.70;;;;;;5092592;28;20105;-47
2022/04/09 09:38:27;;;;;;;3.57;2.20;;;7.70;94.20;;;;;;5092355;28;20238;-46
2022/04/09 09:41:26;;;;;;;6.82;2.40;;;7.80;93.70;;;;;;5096328;27;20392;-47
2022/04/09 09:44:11;;;;;;;3.97;2.40;;;7.90;93.40;;;;;;5105901;27;20045;-50
2022/04/09 09:47:05;;;;;;;6.45;2.53;;;7.90;94.20;;;;;;5127462;27;20038;-46
2022/04/09 09:49:53;;;;;;;3.17;2.42;;;8.00;93.20;;;;;;5094088;28;20509;-49
2022/04/09 09:52:37;;;;;;;3.25;2.17;;;8.10;93.10;;;;;;5105263;28;20395;-46
2022/04/09 09:55:24;;;;;;;5.95;2.50;;;8.40;92.40;;;;;;5084135;28;20440;-46
2022/04/09 09:58:16;;;;;;;4.85;1.92;;;8.40;91.00;;;;;;5098692;28;20078;-46
2022/04/09 10:01:00;;;;;;;4.53;2.40;;;8.20;91.00;;;;;;5105120;28;20034;-47
2022/04/09 10:03:45;;;;;;;5.40;2.13;;;8.00;90.70;;;;;;5077610;28;20036;-52
2022/04/09 10:06:30;;;;;;;6.47;2.80;;;8.10;90.40;;;;;;5092257;28;20506;-46
2022/04/09 10:09:16;;;;;;;2.95;1.92;;;8.10;89.60;;;;;;5093621;28;20557;-48
2022/04/09 10:12:02;;;;;;;3.85;1.88;;;8.40;88.80;;;;;;5096133;28;20078;-48
2022/04/09 10:14:58;;;;;;;4.63;2.45;;;8.70;86.80;;;;;;5105109;27;20061;-47
2022/04/09 10:17:43;;;;;;;4.78;2.22;;;8.90;85.90;;;;;;5118250;27;20077;-47
2022/04/09 10:20:29;;;;;;;5.05;2.42;;;9.00;83.60;;;;;;5119428;27;20149;-45
2022/04/09 10:23:15;;;;;;;3.25;1.98;;;9.00;83.70;;;;;;5114277;28;20144;-46
2022/04/09 10:26:01;;;;;;;2.92;1.90;;;9.00;82.50;;;;;;5093937;28;20039;-50
2022/04/09 10:28:50;;;;;;;3.67;2.10;;;9.20;79.80;;;;;;5092936;28;20126;-48
2022/04/09 10:31:41;;;;;;;5.60;2.22;;;9.50;79.60;;;;;;5104252;28;20706;-48
2022/04/09 10:34:50;;;;;;;3.95;2.10;;;9.30;79.60;;;;;;5107639;28;20466;-45
2022/04/09 10:38:14;;;;;;;4.45;2.42;;;9.00;81.40;;;;;;5113293;28;20031;-53
2022/04/09 10:41:01;;;;;;;2.85;2.15;;;9.00;83.00;;;;;;5113332;28;20034;-47
2022/04/09 10:43:45;;;;;;;4.32;2.67;;;9.00;84.80;;;;;;5094936;28;20066;-46
2022/04/09 10:46:31;;;;;;;5.30;2.70;;;9.10;84.70;;;;;;5096905;28;20040;-51
2022/04/09 10:49:17;;;;;;;5.53;2.33;;;8.80;85.70;;;;;;5102036;28;20051;-50
2022/04/09 10:52:14;;;;;;;3.28;2.30;;;8.70;85.40;;;;;;5079281;28;20193;-48
2022/04/09 10:55:15;;;;;;;3.00;1.73;;;8.90;86.20;;;;;;5093394;28;20101;-48
2022/04/09 10:58:01;;;;;;;5.32;2.30;;;9.20;82.00;;;;;;5092026;28;20054;-52
2022/04/09 11:00:46;;;;;;;3.35;2.00;;;9.20;80.30;;;;;;5111100;27;20533;-51
2022/04/09 11:03:30;;;;;;;5.18;1.98;;;9.20;77.10;;;;;;5100008;28;20082;-48
2022/04/09 11:06:44;;;;;;;3.28;1.90;;;9.10;75.70;;;;;;5108102;28;20514;-49
2022/04/09 11:09:43;;;;;;;4.18;2.00;;;9.00;75.10;;;;;;5104744;28;20027;-49
2022/04/09 11:12:31;;;;;;;12.57;8.50;;;9.20;78.90;;;;;;5093031;28;20054;-51
2022/04/09 11:15:17;;;;;;;4.68;2.40;;;9.20;79.20;;;;;;5101630;28;20034;-51
2022/04/09 11:18:01;;;;;;;5.90;2.10;;;9.40;77.00;;;;;;5115364;27;20096;-47
2022/04/09 11:20:46;;;;;;;3.72;2.17;;;9.50;77.20;;;;;;5132139;27;20097;-50
2022/04/09 11:23:30;;;;;;;4.35;2.10;;;9.40;76.60;;;;;;5103448;28;20034;-51
2022/04/09 11:26:17;;;;;;;7.25;2.45;;;9.30;77.50;;;;;;5107569;28;20109;-53
2022/04/09 11:29:09;;;;;;;4.43;2.25;;;9.30;79.70;;;;;;5101802;27;20062;-49
2022/04/09 11:31:53;;;;;;;4.50;2.90;;;9.40;81.10;;;;;;5133525;27;20066;-47
2022/04/09 11:34:51;;;;;;;8.90;3.60;;;9.40;83.50;;;;;;5117855;27;20412;-52
2022/04/09 11:37:40;;;;;;;3.95;3.03;;;9.20;85.20;;;;;;5130401;27;20149;-52
2022/04/09 11:40:24;;;;;;;5.63;2.80;;;9.10;84.60;;;;;;5127620;27;20034;-49
2022/04/09 11:43:08;;;;;;;6.38;2.88;;;8.90;85.30;;;;;;5118791;27;20111;-50
2022/04/09 11:45:52;;;;;;;6.00;2.95;;;8.80;86.50;;;;;;5115722;28;20460;-49
2022/04/09 11:48:36;;;;;;;4.82;2.80;;;8.90;86.90;;;;;;5120591;27;20042;-52
2022/04/09 11:51:20;;;;;;;6.82;2.88;;;9.10;86.50;;;;;;5124853;27;20053;-50
2022/04/09 11:54:17;;;;;;;5.28;2.92;;;9.30;86.60;;;;;;5123852;27;20070;-48
2022/04/09 11:57:03;;;;;;;8.27;2.78;;;9.30;86.20;;;;;;5100987;28;20039;-52
2022/04/09 11:59:54;;;;;;;5.93;2.40;;;8.80;90.00;;;;;;5091876;28;20510;-52
2022/04/09 12:02:39;;;;;;;4.03;2.40;;;8.10;92.90;;;;;;5102057;28;20102;-50
2022/04/09 12:05:23;;;;;;;3.25;2.60;;;7.60;94.50;;;;;;5119163;27;20031;-49
2022/04/09 12:08:12;;;;;;;4.75;2.22;;;7.70;94.60;;;;;;5113714;27;20530;-51
2022/04/09 12:11:18;;;;;;;3.00;2.17;;;7.90;94.70;;;;;;5099853;28;20069;-52
2022/04/09 12:14:17;;;;;;;3.20;2.15;;;8.20;94.80;;;;;;5095044;28;20035;-47
2022/04/09 12:17:15;;;;;;;2.30;1.80;;;8.70;93.00;;;;;;5103935;28;20542;-61
2022/04/09 12:20:00;;;;;;;2.10;1.73;;;9.10;90.20;;;;;;5108422;28;20123;-53
2022/04/09 12:22:54;;;;;;;3.45;1.75;;;9.40;90.30;;;;;;5106589;28;20034;-47
2022/04/09 12:25:42;;;;;;;5.50;2.30;;;9.60;89.40;;;;;;5104754;28;20101;-47
2022/04/09 12:28:31;;;;;;;5.22;2.25;;;9.80;88.10;;;;;;5094266;28;20780;-50
2022/04/09 12:31:25;;;;;;;6.57;2.72;;;10.00;86.30;;;;;;5094626;28;20090;-49
2022/04/09 12:34:09;;;;;;;3.15;2.30;;;10.00;85.90;;;;;;5094636;28;20035;-51
2022/04/09 12:37:01;;;;;;;3.80;2.40;;;10.10;86.10;;;;;;5094461;28;20065;-48
2022/04/09 12:39:45;;;;;;;5.25;2.95;;;10.40;86.40;;;;;;5103727;28;20072;-47
2022/04/09 12:42:31;;;;;;;3.90;2.60;;;10.50;86.10;;;;;;5126828;27;20038;-46
2022/04/09 12:45:17;;;;;;;;;;;10.20;86.10;;;;;;5136260;27;20038;-48
2022/04/09 12:48:02;;;;;;;6.35;2.88;;;10.00;87.00;;;;;;5136757;27;19915;-50
2022/04/09 12:50:47;;;;;;;3.95;2.90;;;9.90;87.30;;;;;;5136511;27;20119;-49
2022/04/09 12:53:31;;;;;;;;;;;10.00;87.80;;;;;;5135606;27;20042;-48
2022/04/09 12:56:19;;;;;;;4.70;2.55;;;10.20;89.00;;;;;;5134912;27;19930;-46
2022/04/09 12:59:04;;;;;;;3.50;2.10;;;10.30;83.90;;;;;;5115061;27;20092;-50
2022/04/09 13:01:50;;;;;;;4.95;2.60;;;10.60;81.30;;;;;;5098887;28;20078;-50
2022/04/09 13:04:34;;;;;;;5.18;2.20;;;11.10;79.80;;;;;;5113770;28;20050;-49
2022/04/09 13:07:18;;;;;;;4.87;2.43;;;11.20;77.90;;;;;;5113790;28;20034;-50
2022/04/09 13:10:03;;;;;;;3.88;2.25;;;11.30;77.00;;;;;;5114359;28;20089;-55
2022/04/09 13:12:47;;;;;;;;;;;10.80;75.90;;;;;;5114319;28;20446;-45
2022/04/09 13:15:32;;;;;;;3.33;2.00;;;10.70;76.30;;;;;;5112929;28;19961;-47
2022/04/09 13:18:16;;;;;;;4.78;2.22;;;10.30;80.90;;;;;;5113362;28;20026;-46
2022/04/09 13:21:00;;;;;;;6.13;2.08;;;9.10;90.50;;;;;;5114228;28;20062;-49
2022/04/09 13:23:45;;;;;;;4.07;2.50;;;8.00;93.40;;;;;;5113534;28;20076;-49
2022/04/09 13:26:29;;;;;;;3.30;1.70;;;7.70;94.90;;;;;;5113703;28;20089;-49
2022/04/09 13:29:13;;;;;;;2.88;1.90;;;7.70;94.90;;;;;;5114127;28;20030;-50
2022/04/09 13:31:57;;;;;;;3.40;2.20;;;7.50;95.70;;;;;;5114359;28;20034;-51
2022/04/09 13:34:41;;;;;;;6.20;1.90;;;7.60;96.40;;;;;;5115237;28;20034;-48
2022/04/09 13:37:25;;;;;;;3.45;1.80;;;7.70;96.30;;;;;;5113723;28;20085;-53
2022/04/09 13:40:09;;;;;;;4.60;1.90;;;8.00;95.60;;;;;;5112779;28;20039;-45
2022/04/09 13:42:55;;;;;;;2.42;2.22;;;8.30;94.50;;;;;;5113735;28;20030;-53
2022/04/09 13:45:39;;;;;;;2.90;2.05;;;8.60;93.90;;;;;;5113873;28;20732;-47
2022/04/09 13:48:23;;;;;;;2.35;1.85;;;8.90;93.40;;;;;;5098841;28;20114;-46
2022/04/09 13:51:07;;;;;;;3.33;1.90;;;9.10;93.10;;;;;;5114755;28;20455;-47
2022/04/09 13:53:51;;;;;;;2.00;1.80;;;9.60;92.40;;;;;;5113482;28;20095;-47
2022/04/09 13:56:35;;;;;;;2.97;1.83;;;9.90;91.50;;;;;;5098157;28;20144;-46
2022/04/09 13:59:20;;;;;;;1.88;1.65;;;10.10;88.50;;;;;;5098620;28;20104;-51
2022/04/09 14:02:04;;;;;;;2.67;1.60;;;10.20;85.10;;;;;;5098443;28;20034;-51
2022/04/09 14:04:51;;;;;;;2.70;1.90;;;10.40;83.90;;;;;;5111135;28;20153;-48
2022/04/09 14:07:36;;;;;;;3.22;1.90;;;10.10;85.00;;;;;;5112947;28;20097;-45
2022/04/09 14:10:21;;;;;;;4.72;1.95;;;10.30;85.20;;;;;;5113675;28;20038;-50
2022/04/09 14:13:05;;;;;;;3.58;2.10;;;10.00;86.40;;;;;;5113958;28;20120;-52
2022/04/09 14:15:50;;;;;;;5.72;2.90;;;9.80;87.60;;;;;;5113724;28;20034;-51
2022/04/09 14:18:34;;;;;;;4.22;2.47;;;9.40;90.10;;;;;;5112125;28;20117;-53
2022/04/09 14:21:18;;;;;;;3.97;2.75;;;9.00;91.70;;;;;;5113290;28;20030;-46
2022/04/09 14:24:03;;;;;;;5.13;2.43;;;8.20;94.60;;;;;;5113621;28;20452;-48
2022/04/09 14:26:47;;;;;;;7.05;2.70;;;7.50;96.70;;;;;;5113542;28;20284;-51
2022/04/09 14:29:31;;;;;;;3.22;2.30;;;7.00;98.10;;;;;;5114882;28;20089;-52
2022/04/09 14:32:15;;;;;;;3.22;2.00;;;6.50;99.90;;;;;;5116199;28;20038;-51
2022/04/09 14:34:59;;;;;;;3.60;2.10;;;5.90;99.90;;;;;;5114027;28;20043;-49